createdAt,value
2022-10-31T00:01:56.302Z,41.83
2022-10-31T00:04:24.275Z,42.88
2022-10-31T00:06:52.221Z,42.42
2022-10-31T00:09:20.314Z,43.17
2022-10-31T00:11:48.196Z,40.17
2022-10-31T00:14:16.142Z,40.80
2022-10-31T00:16:45.394Z,41.53
2022-10-31T00:19:13.314Z,41.72
2022-10-31T00:21:41.311Z,43.80
2022-10-31T00:24:09.998Z,43.22
2022-10-31T00:26:37.916Z,42.20
2022-10-31T00:29:05.986Z,42.50
2022-10-31T00:31:35.214Z,43.38
2022-10-31T00:34:05.010Z,46.25
2022-10-31T00:36:32.948Z,44.08
2022-10-31T00:39:03.801Z,45.60
2022-10-31T00:41:31.773Z,43.38
2022-10-31T00:43:59.839Z,45.17
2022-10-31T00:46:27.757Z,44.03
2022-10-31T00:48:55.793Z,46.13
2022-10-31T00:51:25.221Z,45.27
2022-10-31T00:53:53.260Z,41.55
2022-10-31T00:56:21.284Z,42.42
2022-10-31T00:58:49.508Z,39.92
2022-10-31T01:01:17.563Z,38.30
2022-10-31T01:03:45.628Z,39.33
2022-10-31T01:06:15.467Z,36.92
2022-10-31T01:08:45.295Z,40.08
2022-10-31T01:11:18.895Z,38.40
2022-10-31T01:13:47.229Z,36.50
2022-10-31T01:16:17.636Z,39.00
2022-10-31T01:18:45.955Z,36.70
2022-10-31T01:21:16.428Z,37.47
2022-10-31T01:23:48.122Z,35.65
2022-10-31T01:26:18.130Z,35.67
2022-10-31T01:28:48.517Z,33.70
2022-10-31T01:31:18.032Z,35.50
2022-10-31T01:33:46.240Z,35.55
2022-10-31T01:36:19.938Z,34.83
2022-10-31T01:38:53.505Z,33.85
2022-10-31T01:41:24.261Z,36.53
2022-10-31T01:44:01.358Z,35.28
2022-10-31T01:46:34.590Z,34.60
2022-10-31T01:49:04.690Z,35.65
2022-10-31T01:51:41.760Z,35.33
2022-10-31T01:54:17.804Z,33.72
2022-10-31T01:56:50.369Z,35.42
2022-10-31T01:59:21.987Z,35.80
2022-10-31T02:01:54.205Z,34.78
2022-10-31T02:04:25.139Z,34.72
2022-10-31T02:07:00.955Z,35.72
2022-10-31T02:09:34.408Z,35.08
2022-10-31T02:12:04.469Z,36.03
2022-10-31T02:14:33.812Z,35.90
2022-10-31T02:19:49.094Z,36.05
2022-10-31T02:22:23.517Z,35.25
2022-10-31T02:25:05.012Z,34.88
2022-10-31T02:28:10.617Z,33.25
2022-10-31T02:30:58.067Z,37.45
2022-10-31T02:33:28.334Z,35.67
2022-10-31T02:36:06.933Z,36.20
2022-10-31T02:38:47.893Z,35.47
2022-10-31T02:41:29.887Z,34.92
2022-10-31T02:44:10.595Z,34.75
2022-10-31T02:46:49.017Z,37.55
2022-10-31T02:49:28.940Z,36.22
2022-10-31T02:51:57.287Z,37.88
2022-10-31T02:54:27.355Z,37.28
2022-10-31T02:57:01.955Z,37.38
2022-10-31T02:59:32.371Z,38.65
2022-10-31T03:02:20.638Z,38.42
2022-10-31T03:05:04.623Z,40.08
2022-10-31T03:07:40.788Z,41.70
2022-10-31T03:10:18.762Z,41.00
2022-10-31T03:12:55.489Z,40.85
2022-10-31T03:15:27.619Z,40.25
2022-10-31T03:18:02.125Z,40.03
2022-10-31T03:20:38.718Z,40.13
2022-10-31T03:23:13.215Z,39.88
2022-10-31T03:25:43.085Z,39.00
2022-10-31T03:28:14.006Z,38.63
2022-10-31T03:30:46.358Z,36.45
2022-10-31T03:33:23.571Z,37.45
2022-10-31T03:35:54.746Z,39.53
2022-10-31T03:38:24.276Z,40.17
2022-10-31T03:40:58.091Z,37.45
2022-10-31T03:43:34.329Z,39.38
2022-10-31T03:46:05.152Z,39.22
2022-10-31T03:48:35.820Z,41.13
2022-10-31T03:51:12.788Z,41.63
2022-10-31T03:53:47.587Z,41.42
2022-10-31T03:58:57.694Z,39.80
2022-10-31T04:01:28.360Z,43.30
2022-10-31T04:03:59.813Z,44.47
2022-10-31T04:06:28.827Z,42.53
2022-10-31T04:09:01.399Z,43.95
2022-10-31T04:11:33.586Z,44.13
2022-10-31T04:14:23.478Z,43.03
2022-10-31T04:16:52.289Z,44.78
2022-10-31T04:19:26.369Z,45.08
2022-10-31T04:21:54.477Z,45.45
2022-10-31T04:24:22.741Z,42.72
2022-10-31T04:26:50.725Z,47.00
2022-10-31T04:29:21.272Z,46.03
2022-10-31T04:31:49.325Z,46.05
2022-10-31T04:34:17.602Z,45.08
2022-10-31T04:36:47.172Z,43.95
2022-10-31T04:39:22.683Z,45.67
2022-10-31T04:42:16.284Z,43.57
2022-10-31T04:44:44.304Z,43.75
2022-10-31T04:47:12.292Z,44.97
2022-10-31T04:49:40.290Z,47.35
2022-10-31T04:52:11.079Z,46.92
2022-10-31T04:54:39.034Z,47.95
2022-10-31T04:57:42.833Z,44.60
2022-10-31T05:00:12.394Z,45.63
2022-10-31T05:02:46.134Z,44.95
2022-10-31T05:05:14.798Z,42.35
2022-10-31T05:07:45.601Z,45.03
2022-10-31T05:10:17.264Z,45.92
2022-10-31T05:12:49.183Z,45.58
2022-10-31T05:15:35.838Z,45.15
2022-10-31T05:18:23.929Z,45.60
2022-10-31T05:20:54.744Z,45.15
2022-10-31T05:23:31.330Z,46.10
2022-10-31T05:26:01.292Z,45.10
2022-10-31T05:28:29.327Z,44.90
2022-10-31T05:30:57.391Z,44.83
2022-10-31T05:33:25.956Z,45.47
2022-10-31T05:36:12.456Z,45.40
2022-10-31T05:38:47.906Z,44.33
2022-10-31T05:41:25.338Z,45.90
2022-10-31T05:43:56.485Z,47.50
2022-10-31T05:46:29.860Z,44.20
2022-10-31T05:49:16.295Z,44.75
2022-10-31T05:52:02.974Z,43.30
2022-10-31T05:54:48.734Z,45.08
2022-10-31T05:57:16.687Z,45.17
2022-10-31T05:59:44.638Z,45.88
2022-10-31T06:02:12.616Z,47.47
2022-10-31T06:05:16.006Z,46.10
2022-10-31T06:07:44.684Z,48.90
2022-10-31T06:10:14.910Z,47.95
2022-10-31T06:12:43.087Z,47.22
2022-10-31T06:15:25.090Z,44.50
2022-10-31T06:18:03.214Z,44.42
2022-10-31T06:20:35.603Z,45.78
2022-10-31T06:23:05.990Z,45.17
2022-10-31T06:25:37.787Z,45.03
2022-10-31T06:28:06.900Z,44.30
2022-10-31T06:30:45.933Z,48.75
2022-10-31T06:33:13.891Z,45.72
2022-10-31T06:35:47.960Z,46.63
2022-10-31T06:38:17.429Z,46.03
2022-10-31T06:40:46.820Z,46.58
2022-10-31T06:43:37.356Z,45.85
2022-10-31T06:46:28.071Z,45.13
2022-10-31T06:49:16.281Z,44.80
2022-10-31T06:51:52.335Z,46.83
2022-10-31T06:54:20.322Z,46.22
2022-10-31T06:56:50.087Z,46.67
2022-10-31T06:59:18.803Z,45.88
2022-10-31T07:02:13.528Z,45.83
2022-10-31T07:04:43.999Z,48.55
2022-10-31T07:07:15.331Z,48.13
2022-10-31T07:09:43.989Z,47.47
2022-10-31T07:12:18.067Z,48.78
2022-10-31T07:14:55.344Z,48.42
2022-10-31T07:17:29.749Z,48.75
2022-10-31T07:20:00.792Z,48.85
2022-10-31T07:22:34.877Z,47.65
2022-10-31T07:25:04.956Z,48.70
2022-10-31T07:27:55.422Z,50.97
2022-10-31T07:30:23.721Z,53.25
2022-10-31T07:32:56.425Z,49.22
2022-10-31T07:35:27.861Z,51.03
2022-10-31T07:38:00.420Z,50.80
2022-10-31T07:43:00.088Z,51.05
2022-10-31T07:46:04.704Z,52.95
2022-10-31T07:48:51.005Z,52.80
2022-10-31T07:51:37.255Z,52.28
2022-10-31T07:54:28.607Z,54.17
2022-10-31T07:56:56.542Z,51.67
2022-10-31T07:59:26.777Z,54.20
2022-10-31T08:01:55.674Z,52.90
2022-10-31T08:04:32.269Z,54.28
2022-10-31T08:07:18.965Z,51.85
2022-10-31T08:09:54.510Z,53.22
2022-10-31T08:12:26.491Z,54.70
2022-10-31T08:14:56.697Z,53.35
2022-10-31T08:17:24.799Z,54.50
2022-10-31T08:19:56.622Z,54.00
2022-10-31T08:22:41.193Z,55.92
2022-10-31T08:25:11.860Z,54.63
2022-10-31T08:27:40.617Z,55.25
2022-10-31T08:30:16.114Z,56.35
2022-10-31T08:33:02.556Z,56.28
2022-10-31T08:35:49.455Z,55.70
2022-10-31T08:38:46.290Z,58.10
2022-10-31T08:41:14.927Z,55.65
2022-10-31T08:43:43.146Z,57.05
2022-10-31T08:46:12.759Z,58.40
2022-10-31T08:48:42.326Z,60.08
2022-10-31T08:51:11.979Z,63.92
2022-10-31T08:53:39.918Z,56.72
2022-10-31T08:56:36.614Z,57.75
2022-10-31T08:59:11.415Z,61.92
2022-10-31T09:01:56.408Z,58.55
2022-10-31T09:04:25.119Z,61.47
2022-10-31T09:09:41.102Z,63.10
2022-10-31T09:12:09.265Z,61.33
2022-10-31T09:14:49.738Z,57.35
2022-10-31T09:17:33.481Z,53.80
2022-10-31T09:20:27.717Z,52.22
2022-10-31T09:23:00.623Z,51.97
2022-10-31T09:25:30.587Z,50.40
2022-10-31T09:28:21.029Z,51.72
2022-10-31T09:30:50.124Z,52.38
2022-10-31T09:33:26.740Z,52.72
2022-10-31T09:36:14.687Z,53.92
2022-10-31T09:38:43.348Z,54.80
2022-10-31T09:41:21.713Z,56.08
2022-10-31T09:43:57.834Z,53.83
2022-10-31T09:46:34.407Z,54.60
2022-10-31T09:49:26.756Z,53.08
2022-10-31T09:52:00.977Z,55.08
2022-10-31T09:54:39.083Z,55.70
2022-10-31T09:57:12.869Z,55.25
2022-10-31T09:59:44.012Z,54.65
2022-10-31T10:02:18.813Z,53.97
2022-10-31T10:04:55.310Z,52.75
2022-10-31T10:07:44.214Z,53.83
2022-10-31T10:10:24.433Z,51.97
2022-10-31T10:13:24.325Z,51.17
2022-10-31T10:16:05.853Z,50.75
2022-10-31T10:18:45.729Z,53.00
2022-10-31T10:21:26.453Z,48.75
2022-10-31T10:24:11.330Z,49.83
2022-10-31T10:26:43.687Z,49.83
2022-10-31T10:29:31.286Z,49.17
2022-10-31T10:32:03.623Z,49.70
2022-10-31T10:34:39.369Z,49.83
2022-10-31T10:37:22.743Z,47.83
2022-10-31T10:39:56.152Z,49.28
2022-10-31T10:42:44.906Z,48.67
2022-10-31T10:48:11.054Z,49.53
2022-10-31T10:50:44.186Z,52.20
2022-10-31T10:53:33.066Z,50.78
2022-10-31T10:58:33.413Z,51.72
2022-10-31T11:01:01.510Z,55.47
2022-10-31T11:03:29.737Z,55.40
2022-10-31T11:05:59.863Z,53.78
2022-10-31T11:08:30.991Z,56.40
2022-10-31T11:11:03.027Z,55.55
2022-10-31T11:13:32.165Z,54.70
2022-10-31T11:18:32.189Z,52.90
2022-10-31T11:21:02.248Z,50.72
2022-10-31T11:23:32.233Z,52.22
2022-10-31T11:26:03.469Z,50.50
2022-10-31T11:28:35.287Z,51.30
2022-10-31T11:31:08.818Z,50.35
2022-10-31T11:33:39.857Z,50.95
2022-10-31T11:36:23.299Z,51.13
2022-10-31T11:38:54.003Z,47.85
2022-10-31T11:41:28.175Z,47.78
2022-10-31T11:43:59.549Z,48.63
2022-10-31T11:46:35.436Z,48.15
2022-10-31T11:49:05.617Z,48.50
2022-10-31T11:51:36.885Z,45.10
2022-10-31T11:54:07.720Z,46.03
2022-10-31T11:56:44.871Z,46.88
2022-10-31T11:59:20.838Z,44.50
2022-10-31T12:01:50.739Z,45.35
2022-10-31T12:04:20.342Z,44.60
2022-10-31T12:06:51.043Z,46.10
2022-10-31T12:09:25.567Z,47.45
2022-10-31T12:12:07.659Z,46.40
2022-10-31T12:14:45.865Z,48.75
2022-10-31T12:17:18.024Z,47.38
2022-10-31T12:19:57.114Z,46.90
2022-10-31T12:22:33.193Z,47.55
2022-10-31T12:25:24.275Z,49.05
2022-10-31T12:28:04.675Z,48.60
2022-10-31T12:30:48.968Z,48.53
2022-10-31T12:33:32.256Z,54.35
2022-10-31T12:36:28.305Z,52.13
2022-10-31T12:39:26.979Z,48.53
2022-10-31T12:42:03.976Z,49.10
2022-10-31T12:44:53.224Z,47.80
2022-10-31T12:47:42.475Z,49.20
2022-10-31T12:50:37.386Z,48.78
2022-10-31T12:56:07.335Z,51.95
2022-10-31T12:58:40.813Z,51.05
2022-10-31T13:01:21.264Z,52.53
2022-10-31T13:03:54.019Z,48.80
2022-10-31T13:06:26.728Z,51.13
2022-10-31T13:08:58.120Z,49.75
2022-10-31T13:11:31.923Z,50.15
2022-10-31T13:14:07.555Z,50.00
2022-10-31T13:16:39.907Z,50.58
2022-10-31T13:19:15.968Z,48.30
2022-10-31T13:21:53.793Z,49.33
2022-10-31T13:24:26.149Z,48.00
2022-10-31T13:26:57.007Z,52.53
2022-10-31T13:29:33.215Z,49.40
2022-10-31T13:32:02.568Z,50.15
2022-10-31T13:34:39.609Z,49.95
2022-10-31T13:37:18.061Z,49.58
2022-10-31T13:42:25.321Z,53.03
2022-10-31T13:44:54.821Z,52.67
2022-10-31T13:47:25.963Z,53.55
2022-10-31T13:49:54.088Z,53.58
2022-10-31T13:52:26.421Z,53.13
2022-10-31T13:54:57.883Z,54.17
2022-10-31T13:57:35.295Z,54.05
2022-10-31T14:00:09.199Z,53.63
2022-10-31T14:02:50.001Z,54.20
2022-10-31T14:05:25.055Z,54.53
2022-10-31T14:07:54.608Z,55.78
2022-10-31T14:10:28.444Z,56.00
2022-10-31T14:13:05.837Z,57.75
2022-10-31T14:15:36.317Z,58.63
2022-10-31T14:18:07.464Z,54.50
2022-10-31T14:20:39.981Z,56.80
2022-10-31T14:23:34.111Z,56.67
2022-10-31T14:26:32.204Z,53.33
2022-10-31T14:29:02.295Z,53.90
2022-10-31T14:31:37.509Z,55.50
2022-10-31T14:34:21.580Z,57.90
2022-10-31T14:37:20.685Z,56.25
2022-10-31T14:40:03.389Z,55.15
2022-10-31T14:42:49.406Z,58.10
2022-10-31T14:45:30.589Z,57.33
2022-10-31T14:48:11.247Z,56.45
2022-10-31T14:50:49.288Z,55.80
2022-10-31T14:53:22.944Z,54.85
2022-10-31T14:55:54.453Z,55.05
2022-10-31T14:58:39.206Z,54.75
2022-10-31T15:01:08.612Z,54.70
2022-10-31T15:03:44.763Z,57.97
2022-10-31T15:06:23.538Z,55.78
2022-10-31T15:08:53.398Z,55.22
2022-10-31T15:11:24.178Z,53.80
2022-10-31T15:13:54.105Z,53.70
2022-10-31T15:16:25.091Z,55.47
2022-10-31T15:19:01.731Z,55.00
2022-10-31T15:21:30.900Z,54.95
2022-10-31T15:24:00.899Z,54.40
2022-10-31T15:26:33.338Z,53.92
2022-10-31T15:29:03.168Z,54.40
2022-10-31T15:31:32.591Z,54.25
2022-10-31T15:34:05.451Z,52.80
2022-10-31T15:36:37.350Z,53.03
2022-10-31T15:39:06.569Z,52.38
2022-10-31T15:41:37.287Z,55.33
2022-10-31T15:44:14.903Z,55.72
2022-10-31T15:46:43.438Z,54.72
2022-10-31T15:49:30.405Z,54.33
2022-10-31T15:52:00.950Z,55.53
2022-10-31T15:54:30.404Z,55.50
2022-10-31T15:56:58.395Z,53.60
2022-10-31T15:59:30.975Z,51.23
2022-10-31T16:02:03.586Z,52.00
2022-10-31T16:04:33.056Z,52.65
2022-10-31T16:07:03.621Z,52.58
2022-10-31T16:09:31.623Z,53.30
2022-10-31T16:12:00.566Z,53.73
2022-10-31T16:17:00.958Z,51.58
2022-10-31T16:19:33.874Z,52.97
2022-10-31T16:22:07.446Z,52.88
2022-10-31T16:24:40.093Z,54.53
2022-10-31T16:27:17.906Z,52.15
2022-10-31T16:29:47.943Z,54.50
2022-10-31T16:32:30.708Z,53.70
2022-10-31T16:35:20.014Z,52.58
2022-10-31T16:37:47.983Z,53.72
2022-10-31T16:40:16.727Z,54.00
2022-10-31T16:42:46.364Z,53.95
2022-10-31T16:45:18.806Z,56.05
2022-10-31T16:47:47.089Z,55.42
2022-10-31T16:50:19.390Z,56.42
2022-10-31T16:55:36.782Z,56.72
2022-10-31T16:58:04.853Z,56.17
2022-10-31T17:00:32.857Z,55.83
2022-10-31T17:03:01.281Z,60.00
2022-10-31T17:05:32.939Z,61.90
2022-10-31T17:08:01.479Z,63.92
2022-10-31T17:10:29.728Z,66.30
2022-10-31T17:13:00.097Z,63.33
2022-10-31T17:15:29.856Z,62.78
2022-10-31T17:17:58.634Z,64.88
2022-10-31T17:22:57.728Z,63.08
2022-10-31T17:25:27.945Z,65.05
2022-10-31T17:27:56.066Z,69.93
2022-10-31T17:30:24.449Z,69.83
2022-10-31T17:32:53.427Z,75.90
2022-10-31T17:35:21.366Z,78.22
2022-10-31T17:37:49.880Z,85.72
2022-10-31T17:40:22.019Z,85.32
2022-10-31T17:42:53.821Z,82.75
2022-10-31T17:45:22.722Z,84.90
2022-10-31T17:47:51.679Z,85.10
2022-10-31T17:52:49.082Z,83.32
2022-10-31T17:57:47.177Z,84.57
2022-10-31T18:00:17.360Z,85.70
2022-10-31T18:02:45.609Z,85.13
2022-10-31T18:05:13.773Z,88.47
2022-10-31T18:07:41.746Z,84.97
2022-10-31T18:10:10.719Z,86.18
2022-10-31T18:12:39.062Z,85.28
2022-10-31T18:15:09.431Z,87.10
2022-10-31T18:17:41.054Z,83.78
2022-10-31T18:20:11.360Z,79.45
2022-10-31T18:22:39.571Z,82.53
2022-10-31T18:25:09.356Z,77.32
2022-10-31T18:27:37.371Z,74.68
2022-10-31T18:30:06.236Z,74.57
2022-10-31T18:32:36.461Z,70.72
2022-10-31T18:35:05.971Z,71.22
2022-10-31T18:37:34.071Z,64.43
2022-10-31T18:40:02.047Z,65.72
2022-10-31T18:42:30.027Z,62.35
2022-10-31T18:45:00.265Z,62.55
2022-10-31T18:47:37.324Z,61.63
2022-10-31T18:50:05.899Z,65.00
2022-10-31T18:52:33.860Z,62.28
2022-10-31T18:55:01.808Z,60.85
2022-10-31T18:57:29.936Z,59.80
2022-10-31T18:59:57.950Z,59.72
2022-10-31T19:02:26.012Z,58.50
2022-10-31T19:04:55.485Z,60.17
2022-10-31T19:07:23.769Z,60.17
2022-10-31T19:09:51.789Z,58.90
2022-10-31T19:12:19.723Z,57.95
2022-10-31T19:14:50.720Z,58.97
2022-10-31T19:17:21.444Z,57.80
2022-10-31T19:19:49.422Z,55.97
2022-10-31T19:22:18.740Z,55.08
2022-10-31T19:24:46.700Z,51.72
2022-10-31T19:27:14.821Z,52.75
2022-10-31T19:29:43.222Z,53.33
2022-10-31T19:32:11.177Z,53.50
2022-10-31T19:34:39.113Z,54.70
2022-10-31T19:37:07.063Z,52.50
2022-10-31T19:39:41.206Z,52.10
2022-10-31T19:42:11.861Z,51.38
2022-10-31T19:44:39.840Z,45.97
2022-10-31T19:47:07.774Z,44.67
2022-10-31T19:49:35.710Z,42.75
2022-10-31T19:52:03.705Z,41.05
2022-10-31T19:54:32.158Z,40.83
2022-10-31T19:57:02.343Z,40.17
2022-10-31T19:59:32.944Z,39.88
2022-10-31T20:02:04.693Z,40.25
2022-10-31T20:04:34.120Z,40.40
2022-10-31T20:07:02.084Z,40.30
2022-10-31T20:09:30.008Z,39.47
2022-10-31T20:11:57.977Z,39.78
2022-10-31T20:14:27.290Z,38.20
2022-10-31T20:16:55.316Z,38.75
2022-10-31T20:19:24.232Z,39.97
2022-10-31T20:24:20.544Z,37.77
2022-10-31T20:26:48.519Z,37.97
2022-10-31T20:29:16.920Z,38.35
2022-10-31T20:31:47.514Z,39.22
2022-10-31T20:34:15.971Z,40.40
2022-10-31T20:36:43.947Z,39.70
2022-10-31T20:39:11.964Z,40.10
2022-10-31T20:41:40.090Z,39.17
2022-10-31T20:44:08.264Z,38.13
2022-10-31T20:46:36.355Z,37.83
2022-10-31T20:49:05.737Z,37.50
2022-10-31T20:51:33.870Z,36.35
2022-10-31T20:54:02.178Z,36.27
2022-10-31T20:56:30.642Z,36.38
2022-10-31T20:58:59.111Z,35.97
2022-10-31T21:01:28.892Z,34.70
2022-10-31T21:03:58.661Z,33.28
2022-10-31T21:06:28.980Z,32.75
2022-10-31T21:08:57.605Z,33.60
2022-10-31T21:11:27.698Z,32.78
2022-10-31T21:13:56.042Z,33.50
2022-10-31T21:16:26.243Z,31.95
2022-10-31T21:18:54.619Z,31.40
2022-10-31T21:21:29.220Z,30.80
2022-10-31T21:24:04.054Z,29.33
2022-10-31T21:26:34.518Z,28.65
2022-10-31T21:29:03.400Z,27.30
2022-10-31T21:31:31.617Z,26.60
2022-10-31T21:33:59.831Z,25.10
2022-10-31T21:36:27.924Z,26.13
2022-10-31T21:38:57.025Z,25.80
2022-10-31T21:41:27.450Z,24.90
2022-10-31T21:43:56.149Z,25.38
2022-10-31T21:46:25.758Z,25.83
2022-10-31T21:48:54.431Z,24.92
2022-10-31T21:51:24.154Z,25.63
2022-10-31T21:54:10.273Z,24.70
2022-10-31T21:56:39.948Z,24.33
2022-10-31T21:59:08.088Z,25.73
2022-10-31T22:01:36.952Z,27.15
2022-10-31T22:04:05.713Z,25.98
2022-10-31T22:06:33.717Z,26.48
2022-10-31T22:09:03.681Z,24.88
2022-10-31T22:11:31.719Z,26.23
2022-10-31T22:14:01.857Z,24.80
2022-10-31T22:16:31.367Z,25.80
2022-10-31T22:19:05.002Z,22.40
2022-10-31T22:21:37.359Z,24.75
2022-10-31T22:24:07.682Z,24.00
2022-10-31T22:26:36.453Z,25.33
2022-10-31T22:29:07.619Z,24.10
2022-10-31T22:31:38.387Z,24.35
2022-10-31T22:34:06.402Z,23.95
2022-10-31T22:36:34.359Z,25.25
2022-10-31T22:39:02.463Z,24.17
2022-10-31T22:41:32.785Z,22.77
2022-10-31T22:44:01.777Z,22.88
2022-10-31T22:46:33.420Z,22.67
2022-10-31T22:49:03.365Z,23.00
2022-10-31T22:51:33.195Z,21.52
2022-10-31T22:54:01.235Z,24.00
2022-10-31T22:56:31.010Z,23.13
2022-10-31T22:58:59.799Z,23.67
2022-10-31T23:01:30.257Z,30.95
2022-10-31T23:04:00.346Z,26.95
2022-10-31T23:06:31.449Z,23.17
2022-10-31T23:09:01.091Z,23.60
2022-10-31T23:11:32.371Z,23.20
2022-10-31T23:14:09.488Z,24.40
2022-10-31T23:16:38.569Z,21.48
2022-10-31T23:19:09.144Z,22.23
2022-10-31T23:21:57.384Z,28.35
2022-10-31T23:24:36.736Z,22.73
2022-10-31T23:29:44.910Z,20.30
2022-10-31T23:32:19.178Z,20.08
2022-10-31T23:34:49.793Z,19.45
2022-10-31T23:37:19.656Z,19.85
2022-10-31T23:39:48.521Z,20.90
2022-10-31T23:42:17.135Z,22.40
2022-10-31T23:44:45.916Z,21.00
2022-10-31T23:47:14.460Z,20.13
2022-10-31T23:49:42.543Z,18.98
2022-10-31T23:52:12.466Z,18.52
2022-10-31T23:54:40.993Z,17.42
2022-10-31T23:57:09.221Z,17.17
2022-10-31T23:59:37.476Z,17.23
